Time;durP1;ratioP1;P1;durP2;ratioP2;P2;SDS_P1;SDS_P2;PMS_P1;PMS_P2;Temp;Humidity;BMP_temperature;BMP_pressure;BME280_temperature;BME280_humidity;BME280_pressure;Samples;Min_cycle;Max_cycle;Signal;HPM_P1;HPM_P2
2023/09/19 00:02:04;;;;;;;13.93;3.67;;;;;;;14.71;100.00;100608.00;5069849;28;20511;-69
2023/09/19 00:04:32;;;;;;;17.65;5.45;;;;;;;14.69;100.00;100604.72;5071981;28;20415;-69
2023/09/19 00:06:58;;;;;;;15.43;4.22;;;;;;;14.65;100.00;100609.03;5068332;28;20033;-69
2023/09/19 00:09:27;;;;;;;13.30;3.50;;;;;;;14.63;100.00;100609.28;5076313;28;20029;-69
2023/09/19 00:11:52;;;;;;;13.68;4.30;;;;;;;14.66;100.00;100616.94;5075867;28;20035;-70
2023/09/19 00:14:18;;;;;;;16.90;4.10;;;;;;;14.65;100.00;100619.94;5057906;28;20020;-70
2023/09/19 00:16:43;;;;;;;14.95;4.05;;;;;;;14.60;100.00;100615.22;5044442;28;20743;-69
2023/09/19 00:19:08;;;;;;;16.17;4.00;;;;;;;14.60;100.00;100625.28;5054277;28;20430;-68
2023/09/19 00:21:37;;;;;;;11.43;3.40;;;;;;;14.61;100.00;100618.78;5055464;28;20033;-67
2023/09/19 00:24:03;;;;;;;14.38;3.92;;;;;;;14.56;100.00;100624.97;5055721;28;20036;-69
2023/09/19 00:26:30;;;;;;;15.23;3.78;;;;;;;14.54;100.00;100629.88;5053372;28;20025;-69
2023/09/19 00:28:57;;;;;;;18.52;4.18;;;;;;;14.56;100.00;100632.34;5055663;28;20068;-69
2023/09/19 00:31:25;;;;;;;13.00;3.65;;;;;;;14.52;100.00;100640.19;5055459;28;20029;-69
2023/09/19 00:33:51;;;;;;;10.13;3.30;;;;;;;14.47;100.00;100635.50;5055459;28;20021;-69
2023/09/19 00:36:16;;;;;;;15.30;4.15;;;;;;;14.46;100.00;100641.19;5057532;28;20032;-69
2023/09/19 00:38:44;;;;;;;14.55;3.72;;;;;;;14.44;100.00;100644.19;5074964;28;20067;-69
2023/09/19 00:41:09;;;;;;;15.05;3.47;;;;;;;14.46;100.00;100649.38;5075384;28;20031;-70
2023/09/19 00:43:35;;;;;;;15.23;3.92;;;;;;;14.41;100.00;100654.78;5074846;28;20029;-69
2023/09/19 00:46:02;;;;;;;14.35;4.30;;;;;;;14.41;100.00;100647.41;5049001;28;20186;-69
2023/09/19 00:48:28;;;;;;;17.75;3.75;;;;;;;14.39;100.00;100656.91;5057455;28;20041;-69
2023/09/19 00:50:56;;;;;;;14.70;3.63;;;;;;;14.36;100.00;100671.88;5055149;28;20036;-69
2023/09/19 00:53:25;;;;;;;13.90;3.85;;;;;;;14.32;100.00;100663.38;5055169;28;20052;-69
2023/09/19 00:55:52;;;;;;;10.85;3.47;;;;;;;14.34;100.00;100672.13;5058469;28;20028;-69
2023/09/19 00:58:18;;;;;;;12.90;3.47;;;;;;;14.30;100.00;100679.16;5069866;28;20033;-69
2023/09/19 01:00:44;;;;;;;21.13;4.57;;;;;;;14.26;100.00;100678.00;5052494;28;20021;-69
2023/09/19 01:03:10;;;;;;;14.52;3.60;;;;;;;14.26;100.00;100678.00;5054885;28;20040;-69
2023/09/19 01:05:36;;;;;;;16.80;4.15;;;;;;;14.26;100.00;100678.00;5053936;28;20028;-69
2023/09/19 01:08:01;;;;;;;16.75;4.13;;;;;;;14.22;100.00;100679.63;5054258;28;20040;-70
2023/09/19 01:10:27;;;;;;;14.05;3.35;;;;;;;14.24;100.00;100688.34;5054740;28;20083;-69
2023/09/19 01:13:26;;;;;;;14.00;3.42;;;;;;;14.23;100.00;100692.13;5054683;28;20028;-70
2023/09/19 01:16:04;;;;;;;12.65;3.47;;;;;;;14.14;100.00;100686.28;5057924;28;20074;-70
2023/09/19 01:18:40;;;;;;;11.57;3.55;;;;;;;14.15;100.00;100687.13;5053596;28;20483;-70
2023/09/19 01:21:15;;;;;;;17.20;4.15;;;;;;;14.09;100.00;100693.59;5036832;28;20029;-69
2023/09/19 01:24:06;;;;;;;16.27;4.13;;;;;;;14.07;100.00;100695.72;5054437;28;20111;-69
2023/09/19 01:27:05;;;;;;;15.85;3.95;;;;;;;14.12;100.00;100706.69;5053687;28;20487;-69
2023/09/19 01:29:44;;;;;;;12.52;3.35;;;;;;;14.07;100.00;100706.59;5054318;28;20496;-69
2023/09/19 01:32:14;;;;;;;14.40;4.07;;;;;;;14.04;100.00;100702.50;5054014;28;20086;-70
2023/09/19 01:34:48;;;;;;;14.80;3.55;;;;;;;14.03;100.00;100710.94;5054048;28;20033;-70
2023/09/19 01:37:14;;;;;;;13.52;3.60;;;;;;;14.00;100.00;100706.81;5053984;28;20029;-70
2023/09/19 01:39:40;;;;;;;15.20;4.00;;;;;;;13.98;100.00;100715.22;5054085;28;20029;-69
2023/09/19 01:42:17;;;;;;;13.90;3.67;;;;;;;13.96;100.00;100717.34;5054270;28;20059;-70
2023/09/19 01:44:46;;;;;;;11.55;3.90;;;;;;;13.96;100.00;100717.34;5053368;28;20120;-70
2023/09/19 01:47:36;;;;;;;12.00;3.60;;;;;;;13.97;100.00;100718.19;5063317;28;20036;-70
2023/09/19 01:50:36;;;;;;;14.20;3.88;;;;;;;13.99;100.00;100716.03;5073883;28;20059;-70
2023/09/19 01:53:15;;;;;;;11.45;3.70;;;;;;;13.98;100.00;100719.84;5055160;28;20087;-70
2023/09/19 01:55:49;;;;;;;11.85;3.50;;;;;;;13.96;100.00;100706.47;5073541;28;20024;-70
2023/09/19 01:58:23;;;;;;;11.27;3.35;;;;;;;13.91;100.00;100709.13;5072581;28;20028;-70
2023/09/19 02:00:53;;;;;;;13.65;3.67;;;;;;;13.90;100.00;100718.34;5071244;28;20057;-69
2023/09/19 02:03:22;;;;;;;13.07;3.72;;;;;;;13.90;100.00;100707.47;5065546;28;20059;-70
2023/09/19 02:05:51;;;;;;;13.10;3.40;;;;;;;13.87;100.00;100707.97;5053599;28;20100;-70
2023/09/19 02:08:23;;;;;;;14.13;3.50;;;;;;;13.85;100.00;100710.13;5071216;28;20033;-69
2023/09/19 02:10:49;;;;;;;14.15;3.63;;;;;;;13.85;100.00;100706.59;5073302;28;20029;-70
2023/09/19 02:13:21;;;;;;;13.13;4.35;;;;;;;13.83;100.00;100709.56;5066062;28;20041;-70
2023/09/19 02:15:47;;;;;;;11.10;3.28;;;;;;;13.83;100.00;100715.00;5053371;28;20033;-70
2023/09/19 02:18:14;;;;;;;10.85;3.25;;;;;;;13.80;100.00;100715.50;5070281;28;20074;-70
2023/09/19 02:20:39;;;;;;;12.63;3.45;;;;;;;13.78;100.00;100720.34;5073210;28;20028;-70
2023/09/19 02:23:05;;;;;;;13.82;3.40;;;;;;;13.75;100.00;100716.25;5067541;28;20032;-70
2023/09/19 02:25:31;;;;;;;12.73;3.45;;;;;;;13.74;100.00;100713.75;5053421;28;20029;-70
2023/09/19 02:27:58;;;;;;;14.00;3.50;;;;;;;13.71;100.00;100720.53;5067530;28;20115;-70
2023/09/19 02:30:25;;;;;;;14.77;3.30;;;;;;;13.73;100.00;100720.28;5073248;28;20111;-70
2023/09/19 02:32:51;;;;;;;10.93;3.03;;;;;;;13.68;100.00;100720.19;5069467;28;20043;-70
2023/09/19 02:35:16;;;;;;;13.77;3.65;;;;;;;13.65;100.00;100725.06;5052994;28;20395;-70
2023/09/19 02:37:42;;;;;;;16.27;3.83;;;;;;;13.63;100.00;100729.94;5064916;28;20491;-70
2023/09/19 02:40:18;;;;;;;12.60;3.10;;;;;;;13.62;100.00;100727.47;5073147;28;20033;-70
2023/09/19 02:42:46;;;;;;;12.57;3.38;;;;;;;13.63;100.00;100724.50;5070769;28;20044;-70
2023/09/19 02:45:12;;;;;;;14.57;3.78;;;;;;;13.60;100.00;100725.00;5052801;28;20040;-70
2023/09/19 02:47:39;;;;;;;11.32;3.47;;;;;;;13.58;100.00;100727.13;5052208;28;20036;-70
2023/09/19 02:50:05;;;;;;;11.35;3.05;;;;;;;13.55;100.00;100724.91;5053241;28;20037;-69
2023/09/19 02:52:30;;;;;;;13.80;3.53;;;;;;;13.49;100.00;100717.75;5053002;28;20036;-69
2023/09/19 02:54:56;;;;;;;11.55;3.42;;;;;;;13.51;100.00;100731.91;5052076;28;20032;-70
2023/09/19 02:57:21;;;;;;;12.52;3.45;;;;;;;13.49;100.00;100727.81;5055782;28;20025;-69
2023/09/19 02:59:46;;;;;;;9.63;3.42;;;;;;;13.44;100.00;100728.53;5052629;28;20103;-69
2023/09/19 03:02:12;;;;;;;11.75;3.65;;;;;;;13.48;100.00;100726.97;5032552;28;20040;-69
2023/09/19 03:04:37;;;;;;;12.52;3.33;;;;;;;13.46;100.00;100729.13;5052076;28;20175;-69
2023/09/19 03:07:04;;;;;;;10.93;3.25;;;;;;;13.44;100.00;100736.69;5058561;28;20036;-70
2023/09/19 03:09:29;;;;;;;11.80;3.30;;;;;;;13.42;100.00;100736.09;5054286;28;20087;-69
2023/09/19 03:11:54;;;;;;;11.65;3.75;;;;;;;13.42;100.00;100730.66;5052637;28;20124;-70
2023/09/19 03:14:20;;;;;;;11.73;3.60;;;;;;;13.46;100.00;100737.28;5052063;28;20047;-69
2023/09/19 03:16:45;;;;;;;10.75;3.35;;;;;;;13.42;100.00;100736.09;5052059;28;20029;-70
2023/09/19 03:19:11;;;;;;;13.73;3.38;;;;;;;13.39;100.00;100733.88;5052241;28;20032;-69
2023/09/19 03:21:36;;;;;;;12.52;3.78;;;;;;;13.42;100.00;100730.66;5052313;28;20543;-69
2023/09/19 03:24:02;;;;;;;11.25;3.45;;;;;;;13.47;100.00;100731.59;5052357;28;20041;-70
2023/09/19 03:26:28;;;;;;;13.57;3.13;;;;;;;13.44;100.00;100736.69;5052114;28;20475;-70
2023/09/19 03:28:53;;;;;;;11.75;3.75;;;;;;;13.40;100.00;100732.81;5054990;28;20392;-69
2023/09/19 03:31:19;;;;;;;14.40;3.65;;;;;;;13.47;100.00;100736.22;5056578;28;20063;-69
2023/09/19 03:33:44;;;;;;;10.65;3.05;;;;;;;13.41;100.00;100729.03;5033793;28;20415;-68
2023/09/19 03:36:09;;;;;;;11.38;3.05;;;;;;;13.45;100.00;100730.16;5052562;28;20033;-69
2023/09/19 03:38:35;;;;;;;14.10;3.30;;;;;;;13.44;100.00;100731.25;5054502;28;20109;-69
2023/09/19 03:41:01;;;;;;;9.15;3.13;;;;;;;13.45;100.00;100719.31;5073339;28;20092;-68
2023/09/19 03:43:27;;;;;;;11.80;3.58;;;;;;;13.48;100.00;100729.69;5069534;28;20685;-68
2023/09/19 03:45:54;;;;;;;12.32;3.30;;;;;;;13.48;100.00;100724.25;5056192;28;20033;-69
2023/09/19 03:48:21;;;;;;;10.13;3.28;;;;;;;13.47;100.00;100718.00;5072083;28;20039;-69
2023/09/19 03:50:47;;;;;;;11.40;3.75;;;;;;;13.48;100.00;100721.53;5076093;28;20028;-69
2023/09/19 03:53:12;;;;;;;9.68;3.10;;;;;;;13.49;100.00;100723.19;5071761;28;20028;-69
2023/09/19 03:55:38;;;;;;;11.15;3.20;;;;;;;13.52;100.00;100711.00;5038498;28;20078;-68
2023/09/19 03:58:04;;;;;;;9.93;2.95;;;;;;;13.49;100.00;100711.50;5068999;28;20073;-68
2023/09/19 04:00:29;;;;;;;10.52;3.17;;;;;;;13.52;100.00;100705.56;5073747;28;20028;-69
2023/09/19 04:02:56;;;;;;;10.68;3.30;;;;;;;13.55;100.00;100713.22;5074093;28;20115;-69
2023/09/19 04:05:22;;;;;;;11.35;2.92;;;;;;;13.54;100.00;100717.00;5056087;28;20056;-69
2023/09/19 04:07:48;;;;;;;15.23;3.85;;;;;;;13.54;100.00;100720.56;5066530;28;20032;-69
2023/09/19 04:10:14;;;;;;;13.27;3.33;;;;;;;13.55;100.00;100719.47;5075810;28;20364;-69
2023/09/19 04:12:39;;;;;;;11.38;3.38;;;;;;;13.52;100.00;100717.25;5065616;28;20040;-68
2023/09/19 04:15:06;;;;;;;12.20;3.53;;;;;;;13.54;100.00;100717.00;5055281;28;20033;-69
2023/09/19 04:17:34;;;;;;;12.20;3.20;;;;;;;13.54;100.00;100719.72;5063830;28;20036;-69
2023/09/19 04:20:00;;;;;;;12.50;3.35;;;;;;;13.56;100.00;100723.84;5051651;28;20537;-69
2023/09/19 04:22:26;;;;;;;11.95;3.78;;;;;;;13.53;100.00;100729.78;5074134;28;20081;-69
2023/09/19 04:24:51;;;;;;;14.45;3.88;;;;;;;13.50;100.00;100734.88;5075241;28;20056;-67
2023/09/19 04:27:16;;;;;;;11.02;3.25;;;;;;;13.54;100.00;100747.75;5074834;28;20040;-69
2023/09/19 04:29:42;;;;;;;15.43;3.65;;;;;;;13.50;100.00;100746.59;5066718;28;20033;-68
2023/09/19 04:32:09;;;;;;;14.18;3.63;;;;;;;13.52;100.00;100743.63;5075123;28;20485;-69
2023/09/19 04:34:34;;;;;;;11.90;3.42;;;;;;;13.54;100.00;100752.34;5075545;28;20026;-69
2023/09/19 04:37:00;;;;;;;14.73;4.13;;;;;;;13.55;100.00;100762.16;5075087;28;20032;-69
2023/09/19 04:39:26;;;;;;;13.98;3.88;;;;;;;13.55;100.00;100771.13;5069769;28;20060;-69
2023/09/19 04:41:53;;;;;;;11.82;3.80;;;;;;;13.56;100.00;100767.34;5055281;28;20029;-69
2023/09/19 04:44:18;;;;;;;13.25;3.58;;;;;;;13.56;100.00;100778.22;5055395;28;20025;-69
2023/09/19 04:46:44;;;;;;;11.25;3.53;;;;;;;13.58;100.00;100777.97;5055053;28;20039;-68
2023/09/19 04:49:09;;;;;;;14.88;4.05;;;;;;;13.59;100.00;100776.91;5052648;28;20028;-69
2023/09/19 04:51:36;;;;;;;16.02;3.88;;;;;;;13.62;100.00;100793.53;5074984;28;20021;-69
2023/09/19 04:54:02;;;;;;;10.85;3.22;;;;;;;13.60;100.00;100790.25;5055816;28;20558;-69
2023/09/19 04:56:28;;;;;;;13.85;4.05;;;;;;;13.64;100.00;100796.81;5075396;28;20107;-69
2023/09/19 04:58:53;;;;;;;13.20;4.18;;;;;;;13.65;100.00;100803.09;5072624;28;20452;-69
2023/09/19 05:01:22;;;;;;;13.13;3.58;;;;;;;13.65;100.00;100803.94;5051961;28;20033;-69
2023/09/19 05:03:52;;;;;;;11.98;3.65;;;;;;;13.62;100.00;100804.41;5054599;28;20053;-69
2023/09/19 05:06:18;;;;;;;18.70;3.80;;;;;;;13.63;100.00;100795.19;5054998;28;20036;-69
2023/09/19 05:08:43;;;;;;;14.90;4.13;;;;;;;13.65;100.00;100797.66;5063166;28;20033;-68
2023/09/19 05:11:08;;;;;;;15.25;3.88;;;;;;;13.68;100.00;100802.63;5053310;28;20400;-68
2023/09/19 05:13:34;;;;;;;12.73;3.30;;;;;;;13.66;100.00;100802.03;5054838;28;20074;-68
2023/09/19 05:16:02;;;;;;;9.10;3.40;;;;;;;13.63;100.00;100806.06;5068631;28;20028;-69
2023/09/19 05:18:28;;;;;;;13.05;3.40;;;;;;;13.64;100.00;100801.44;5067718;28;20575;-68
2023/09/19 05:20:54;;;;;;;11.52;3.20;;;;;;;13.62;100.00;100803.59;5073043;28;20107;-68
2023/09/19 05:23:20;;;;;;;12.65;3.42;;;;;;;13.59;100.00;100802.19;5069431;28;20029;-68
2023/09/19 05:25:46;;;;;;;13.20;3.78;;;;;;;13.64;100.00;100806.88;5053794;28;20029;-69
2023/09/19 05:28:14;;;;;;;12.93;3.55;;;;;;;13.57;100.00;100809.78;5054667;28;20032;-69
2023/09/19 05:30:41;;;;;;;11.98;3.20;;;;;;;13.64;100.00;100807.69;5073212;28;20131;-69
2023/09/19 05:33:07;;;;;;;12.02;3.42;;;;;;;13.60;100.00;100811.16;5073613;28;20056;-69
2023/09/19 05:35:32;;;;;;;11.20;3.63;;;;;;;13.60;100.00;100811.16;5064443;28;20029;-69
2023/09/19 05:37:58;;;;;;;13.73;3.60;;;;;;;13.59;100.00;100804.91;5058913;28;20589;-69
2023/09/19 05:40:24;;;;;;;14.70;3.92;;;;;;;13.59;100.00;100814.97;5072702;28;20491;-69
2023/09/19 05:42:53;;;;;;;11.77;3.15;;;;;;;13.57;100.00;100811.66;5054051;28;20043;-69
2023/09/19 05:45:24;;;;;;;16.67;3.88;;;;;;;13.56;100.00;100816.28;5067157;28;20021;-69
2023/09/19 05:47:50;;;;;;;13.43;3.25;;;;;;;13.58;100.00;100814.13;5060646;28;20039;-69
2023/09/19 05:50:16;;;;;;;12.93;3.58;;;;;;;13.58;100.00;100807.88;5073784;28;20040;-69
2023/09/19 05:52:44;;;;;;;12.95;3.53;;;;;;;13.57;100.00;100807.06;5073614;28;20059;-69
2023/09/19 05:55:10;;;;;;;16.42;3.85;;;;;;;13.61;100.00;100791.88;5067516;28;20142;-68
2023/09/19 05:57:39;;;;;;;13.63;3.50;;;;;;;13.58;100.00;100797.81;5057567;28;20028;-69
2023/09/19 06:00:14;;;;;;;11.32;3.25;;;;;;;13.59;100.00;100799.47;5073440;28;20384;-68
2023/09/19 06:02:40;;;;;;;15.35;4.05;;;;;;;13.61;100.00;100799.22;5042904;28;20029;-70
2023/09/19 06:05:06;;;;;;;15.05;3.85;;;;;;;13.62;100.00;100809.84;5053796;28;20055;-71
2023/09/19 06:07:36;;;;;;;8.60;1.70;;;;;;;13.69;100.00;100811.59;5054565;28;20033;-71
2023/09/19 06:10:05;;;;;;;13.48;3.25;;;;;;;13.61;100.00;100800.03;5071991;28;20025;-71
2023/09/19 06:12:37;;;;;;;17.13;4.10;;;;;;;13.59;100.00;100804.91;5054321;28;20025;-71
2023/09/19 06:15:03;;;;;;;15.43;4.10;;;;;;;13.60;100.00;100801.13;5069555;28;20029;-71
2023/09/19 06:17:28;;;;;;;14.20;4.10;;;;;;;13.59;100.00;100815.78;5072342;28;20114;-71
2023/09/19 06:19:55;;;;;;;18.88;4.25;;;;;;;13.62;100.00;100818.00;5057250;28;20449;-72
2023/09/19 06:22:21;;;;;;;14.90;3.75;;;;;;;13.62;100.00;100818.00;5053542;28;20490;-72
2023/09/19 06:24:46;;;;;;;15.57;4.15;;;;;;;13.61;100.00;100812.81;5053687;28;20033;-72
2023/09/19 06:27:13;;;;;;;16.02;4.07;;;;;;;13.63;100.00;100816.09;5052579;28;20041;-72
2023/09/19 06:29:38;;;;;;;16.38;4.00;;;;;;;13.59;100.00;100823.13;5052869;28;20062;-72
2023/09/19 06:32:10;;;;;;;15.35;4.03;;;;;;;13.58;100.00;100827.72;5035155;28;20380;-71
2023/09/19 06:34:37;;;;;;;15.70;4.38;;;;;;;13.60;100.00;100828.31;5053288;28;20059;-70
2023/09/19 06:37:03;;;;;;;11.35;3.55;;;;;;;13.62;100.00;100837.03;5053802;28;20040;-71
2023/09/19 06:39:28;;;;;;;15.85;4.00;;;;;;;13.64;100.00;100834.09;5067461;28;20032;-71
2023/09/19 06:41:54;;;;;;;17.35;4.28;;;;;;;13.64;100.00;100840.34;5069815;28;20032;-69
2023/09/19 06:44:21;;;;;;;16.77;4.20;;;;;;;13.65;100.00;100841.19;5066668;28;20065;-70
2023/09/19 06:46:49;;;;;;;13.85;3.72;;;;;;;13.64;100.00;100832.19;5072678;28;20037;-70
2023/09/19 06:49:15;;;;;;;14.98;4.20;;;;;;;13.64;100.00;100834.91;5059578;28;20056;-70
2023/09/19 06:51:41;;;;;;;15.52;4.28;;;;;;;13.69;100.00;100841.50;5052369;28;20116;-69
2023/09/19 06:54:07;;;;;;;15.70;3.67;;;;;;;13.70;100.00;100843.16;5034242;28;20247;-72
2023/09/19 06:56:32;;;;;;;15.57;4.07;;;;;;;13.72;100.00;100847.25;5051978;28;20535;-70
2023/09/19 06:58:58;;;;;;;17.10;4.10;;;;;;;13.76;100.00;100842.97;5040173;28;20024;-72
2023/09/19 07:01:23;;;;;;;16.63;4.15;;;;;;;13.75;100.00;100840.50;5058489;28;20028;-70
2023/09/19 07:03:48;;;;;;;15.10;3.70;;;;;;;13.80;100.00;100840.63;5054978;28;20056;-71
2023/09/19 07:06:14;;;;;;;14.20;4.28;;;;;;;13.80;100.00;100846.06;5043968;28;20071;-71
2023/09/19 07:08:39;;;;;;;15.20;4.05;;;;;;;13.82;100.00;100846.63;5057058;28;20388;-71
2023/09/19 07:11:06;;;;;;;17.92;4.93;;;;;;;13.86;100.00;100841.50;5035813;28;20029;-71
2023/09/19 07:13:32;;;;;;;14.75;4.25;;;;;;;13.89;100.00;100841.00;5057083;28;20024;-70
2023/09/19 07:15:59;;;;;;;15.23;4.28;;;;;;;13.90;100.00;100854.34;5051571;28;20028;-70
2023/09/19 07:18:24;;;;;;;15.45;4.00;;;;;;;13.92;100.00;100851.38;5058547;28;20043;-71
2023/09/19 07:20:50;;;;;;;18.00;4.28;;;;;;;13.95;100.00;100851.75;5056677;28;20024;-71
2023/09/19 07:23:18;;;;;;;13.10;3.72;;;;;;;14.00;100.00;100848.28;5054028;28;20056;-71
2023/09/19 07:25:44;;;;;;;14.55;3.63;;;;;;;14.02;100.00;100845.31;5053680;28;20039;-71
2023/09/19 07:28:09;;;;;;;14.68;3.85;;;;;;;14.05;100.00;100851.06;5044421;28;20029;-71
2023/09/19 07:30:38;;;;;;;15.20;3.75;;;;;;;14.05;100.00;100847.53;5054644;28;20037;-71
2023/09/19 07:33:05;;;;;;;19.73;4.15;;;;;;;14.08;100.00;100839.69;5058606;28;20357;-71
2023/09/19 07:35:31;;;;;;;14.55;3.70;;;;;;;14.12;100.00;100840.03;5053555;28;20060;-71
2023/09/19 07:37:58;;;;;;;15.18;3.83;;;;;;;14.16;100.00;100849.31;5057369;28;20060;-71
2023/09/19 07:40:26;;;;;;;13.50;3.80;;;;;;;14.21;100.00;100843.97;5056741;28;20044;-71
2023/09/19 07:42:52;;;;;;;16.98;4.00;;;;;;;14.25;100.00;100847.84;5035733;28;20395;-71
2023/09/19 07:45:18;;;;;;;16.35;4.45;;;;;;;14.32;100.00;100848.47;5054357;28;20029;-70
2023/09/19 07:47:47;;;;;;;12.30;3.55;;;;;;;14.37;100.00;100853.16;5060807;28;20052;-71
2023/09/19 07:50:13;;;;;;;12.93;4.00;;;;;;;14.40;100.00;100849.94;5061896;28;20669;-71
2023/09/19 07:52:39;;;;;;;16.10;4.32;;;;;;;14.46;100.00;100853.56;5054441;28;20051;-71
2023/09/19 07:55:08;;;;;;;14.35;3.90;;;;;;;14.51;100.00;100853.66;5052009;28;20464;-71
2023/09/19 07:57:35;;;;;;;16.45;4.22;;;;;;;14.56;100.00;100844.72;5050056;28;20098;-71
2023/09/19 08:00:00;;;;;;;14.45;4.38;;;;;;;14.57;100.00;100855.38;5058820;28;20471;-71
2023/09/19 08:02:25;;;;;;;14.55;4.03;;;;;;;14.62;100.00;100855.47;5055406;28;20069;-70
2023/09/19 08:04:51;;;;;;;17.80;4.10;;;;;;;14.66;100.00;100856.63;5061163;28;20055;-71
2023/09/19 08:07:18;;;;;;;11.98;3.72;;;;;;;14.74;100.00;100857.25;5055828;28;20047;-71
2023/09/19 08:09:46;;;;;;;16.45;4.38;;;;;;;14.80;100.00;100858.97;5062574;28;20025;-72
2023/09/19 08:12:12;;;;;;;17.52;4.03;;;;;;;14.81;100.00;100863.31;5058495;28;20364;-71
2023/09/19 08:14:37;;;;;;;17.77;4.28;;;;;;;14.86;100.00;100858.75;5052796;28;20035;-71
2023/09/19 08:17:07;;;;;;;14.23;3.50;;;;;;;14.91;100.00;100862.63;5042053;28;20031;-71
2023/09/19 08:19:33;;;;;;;17.98;4.13;;;;;;;14.96;100.00;100868.97;5064584;28;20127;-70
2023/09/19 08:21:58;;;;;;;14.40;3.95;;;;;;;14.97;100.00;100864.34;5031724;28;20124;-71
2023/09/19 08:24:28;;;;;;;17.02;4.03;;;;;;;14.97;100.00;100856.97;5051856;28;20056;-71
2023/09/19 08:26:55;;;;;;;15.07;4.10;;;;;;;15.02;100.00;100865.25;5059736;28;20033;-71
2023/09/19 08:29:20;;;;;;;17.20;4.30;;;;;;;15.05;100.00;100859.28;5065626;28;20036;-71
2023/09/19 08:31:49;;;;;;;16.23;4.90;;;;;;;15.10;100.00;100865.84;5062691;28;20390;-71
2023/09/19 08:34:15;;;;;;;14.23;3.67;;;;;;;15.16;100.00;100870.31;5059486;28;20476;-71
2023/09/19 08:36:41;;;;;;;14.57;3.63;;;;;;;15.15;100.00;100853.09;5060688;28;20039;-71
2023/09/19 08:39:08;;;;;;;11.10;3.30;;;;;;;15.16;100.00;100860.22;5043424;28;20028;-71
2023/09/19 08:41:34;;;;;;;15.43;3.80;;;;;;;15.23;100.00;100860.00;5057254;28;20543;-71
2023/09/19 08:44:01;;;;;;;14.32;3.58;;;;;;;15.26;100.00;100864.13;5060146;28;20461;-71
2023/09/19 08:46:30;;;;;;;13.48;3.70;;;;;;;15.29;100.00;100866.34;5066880;28;20098;-71
2023/09/19 08:49:05;;;;;;;15.05;4.00;;;;;;;15.32;100.00;100858.47;5062332;28;20413;-71
2023/09/19 08:51:39;;;;;;;15.82;4.07;;;;;;;15.31;100.00;100861.44;5059303;28;20344;-71
2023/09/19 08:54:09;;;;;;;14.88;3.80;;;;;;;15.34;100.00;100861.78;5039583;28;20487;-71
2023/09/19 08:56:36;;;;;;;16.67;3.58;;;;;;;15.41;100.00;100858.81;5064717;28;20025;-71
2023/09/19 08:59:07;;;;;;;15.00;3.90;;;;;;;15.46;100.00;100869.81;5055326;28;20452;-71
2023/09/19 09:01:33;;;;;;;17.45;4.32;;;;;;;15.52;100.00;100867.94;5054734;28;20166;-71
2023/09/19 09:03:58;;;;;;;14.52;3.85;;;;;;;15.58;100.00;100862.28;5060106;28;20135;-71
2023/09/19 09:06:25;;;;;;;16.35;4.18;;;;;;;15.62;100.00;100861.75;5057690;28;20037;-70
2023/09/19 09:08:52;;;;;;;13.75;3.55;;;;;;;15.63;100.00;100856.06;5036821;28;20036;-70
2023/09/19 09:11:17;;;;;;;15.27;4.38;;;;;;;15.65;100.00;100856.59;5055093;28;20044;-72
2023/09/19 09:13:47;;;;;;;10.10;3.45;;;;;;;15.71;100.00;100861.03;5055209;28;20393;-71
2023/09/19 09:16:17;;;;;;;16.33;4.30;;;;;;;15.81;100.00;100873.16;5054810;28;20036;-71
2023/09/19 09:18:44;;;;;;;16.60;4.03;;;;;;;15.87;100.00;100861.22;5058460;28;20029;-70
2023/09/19 09:21:09;;;;;;;19.60;3.95;;;;;;;15.91;100.00;100873.22;5054400;28;20028;-72
2023/09/19 09:23:35;;;;;;;13.00;3.65;;;;;;;15.94;100.00;100861.78;5065099;28;20024;-71
2023/09/19 09:26:05;;;;;;;14.80;4.05;;;;;;;15.92;100.00;100872.16;5081896;28;20089;-71
2023/09/19 09:28:31;;;;;;;14.02;3.80;;;;;;;15.95;100.00;100871.63;5044932;28;20047;-70
2023/09/19 09:30:59;;;;;;;14.52;4.25;;;;;;;16.02;100.00;100865.94;5055009;28;20040;-70
2023/09/19 09:33:25;;;;;;;14.30;3.80;;;;;;;16.12;100.00;100850.50;5054567;28;20033;-70
2023/09/19 09:36:02;;;;;;;13.48;3.55;;;;;;;16.22;100.00;100857.09;5070332;28;20025;-70
2023/09/19 09:38:33;;;;;;;10.80;3.53;;;;;;;16.30;100.00;100848.41;5061055;28;20025;-70
2023/09/19 09:43:36;;;;;;;18.35;4.85;;;;;;;16.32;100.00;100848.97;5069698;28;20033;-69
2023/09/19 09:46:58;;;;;;;16.00;3.90;;;;;;;16.37;100.00;100846.28;5055910;28;20132;-72
2023/09/19 09:49:16;;;;;;;14.45;3.80;;;;;;;16.38;100.00;100841.63;5073734;28;20040;-70
2023/09/19 09:51:47;;;;;;;18.98;4.18;;;;;;;16.46;100.00;100835.66;5074127;28;20024;-70
2023/09/19 09:54:14;;;;;;;12.55;3.72;;;;;;;16.56;100.00;100843.09;5068069;28;20091;-70
2023/09/19 09:56:54;;;;;;;14.02;4.03;;;;;;;16.64;100.00;100837.13;5069104;28;20472;-71
2023/09/19 09:59:23;;;;;;;13.73;3.15;;;;;;;16.65;100.00;100852.41;5073723;28;20103;-71
2023/09/19 10:01:50;;;;;;;12.57;3.67;;;;;;;16.68;100.00;100843.69;5071559;28;20060;-71
2023/09/19 10:04:42;;;;;;;15.02;3.80;;;;;;;16.79;100.00;100845.41;5067434;28;20045;-71
2023/09/19 10:07:11;;;;;;;12.43;3.72;;;;;;;16.82;100.00;100838.56;5053194;28;20039;-70
2023/09/19 10:09:47;;;;;;;12.88;3.30;;;;;;;16.89;100.00;100860.22;5053930;28;20032;-70
2023/09/19 10:12:16;;;;;;;13.50;3.40;;;;;;;16.86;100.00;100847.88;5052615;28;20094;-72
2023/09/19 10:14:43;;;;;;;12.43;3.40;;;;;;;16.90;100.00;100856.41;5053694;28;20032;-71
2023/09/19 10:17:12;;;;;;;15.05;3.78;;;;;;;16.95;100.00;100845.47;5062676;28;20418;-71
2023/09/19 10:20:05;;;;;;;13.90;3.60;;;;;;;16.94;100.00;100846.56;5073549;28;20062;-69
2023/09/19 10:22:32;;;;;;;9.95;3.10;;;;;;;16.95;100.00;100845.47;5043804;28;20090;-71
2023/09/19 10:24:59;;;;;;;14.43;3.45;;;;;;;16.95;100.00;100838.13;5053578;28;20118;-71
2023/09/19 10:27:26;;;;;;;15.00;3.30;;;;;;;17.00;100.00;100837.31;5065825;28;20038;-71
2023/09/19 10:29:55;;;;;;;13.27;3.55;;;;;;;17.03;100.00;100842.25;5073374;28;20058;-71
2023/09/19 10:32:23;;;;;;;10.15;3.17;;;;;;;17.00;100.00;100850.97;5062488;28;20036;-72
2023/09/19 10:34:49;;;;;;;12.90;3.28;;;;;;;17.06;100.00;100841.69;5053293;28;20067;-70
2023/09/19 10:37:16;;;;;;;12.23;3.22;;;;;;;17.11;100.00;100844.44;5063522;28;20494;-71
2023/09/19 10:39:46;;;;;;;11.30;3.20;;;;;;;17.26;100.00;100840.94;5073249;28;20036;-71
2023/09/19 10:42:17;;;;;;;11.25;3.50;;;;;;;17.38;100.00;100842.56;5070420;28;20060;-70
2023/09/19 10:44:45;;;;;;;11.10;3.00;;;;;;;17.42;100.00;100833.59;5073198;28;20036;-70
2023/09/19 10:47:11;;;;;;;11.05;3.03;;;;;;;17.47;100.00;100847.25;5043331;28;20082;-70
2023/09/19 10:49:46;;;;;;;14.55;3.65;;;;;;;17.42;100.00;100833.59;5052035;28;20028;-70
2023/09/19 10:52:18;;;;;;;10.57;3.17;;;;;;;17.49;100.00;100834.13;5063102;28;20029;-71
2023/09/19 10:54:48;;;;;;;11.18;3.25;;;;;;;17.56;100.00;100843.97;5051898;28;20025;-70
2023/09/19 10:57:19;;;;;;;14.15;3.60;;;;;;;17.61;100.00;100844.00;5062604;28;20032;-70
2023/09/19 11:00:06;;;;;;;16.05;3.22;;;;;;;17.77;100.00;100831.97;5072458;28;20020;-71
2023/09/19 11:02:32;;;;;;;9.63;2.97;;;;;;;17.71;100.00;100835.78;5058877;28;20040;-70
2023/09/19 11:05:11;;;;;;;11.95;2.92;;;;;;;17.71;100.00;100813.91;5052319;28;20111;-70
2023/09/19 11:07:57;;;;;;;12.05;3.15;;;;;;;17.71;100.00;100833.06;5065546;28;20064;-70
2023/09/19 11:10:46;;;;;;;10.93;3.38;;;;;;;17.71;100.00;100798.28;5072082;28;20024;-70
2023/09/19 11:13:30;;;;;;;9.13;2.95;;;;;;;17.81;100.00;100800.19;5055460;28;20033;-70
2023/09/19 11:15:58;;;;;;;8.45;2.80;;;;;;;17.94;100.00;100800.78;5051804;28;20365;-70
2023/09/19 11:18:42;;;;;;;11.82;2.50;;;;;;;17.97;100.00;100789.28;5052064;28;20076;-70